NCAR-RAP Real-Time Weather Data

Output produced by METARs form (16 August 2018  19:24 UTC)
found at http://weather.rap.ucar.edu/surface/
 
RJFS 161900Z 03012KT 9999 FEW030 BKN050 BKN090 27/23 Q1008
RJFS 161800Z 03010KT 9999 FEW030 BKN090 27/24 Q1008
RJFS 161700Z 04009KT 9999 FEW030 SCT045 BKN080 27/24 Q1008
RJFS 161600Z 03010KT 9999 FEW030 SCT045 BKN080 28/24 Q1009
RJFS 161200Z 03011KT 9999 FEW030 BKN045 28/24 Q1008
RJFS 161100Z 04006KT 9999 FEW030 SCT170 BKN/// 28/25 Q1007
RJFS 161000Z 07007KT 9999 FEW030 SCT150 BKN/// 28/25 Q1007
RJFS 160900Z 10008KT 9999 VCSH FEW035 FEW040CB SCT150 BKN/// 28/24 Q1007
RJFS 160835Z 10010KT 9999 TS FEW035 FEW040CB SCT150 BKN/// 30/24 Q1007 RMK 2CU035 2CB040 3AC150 A2974 FBL TS 20KM SE AND 30KM W MOV NW
RJFS 160800Z 04014KT 9999 TS FEW035 FEW040CB SCT150 BKN/// 31/24 Q1006
RJFS 160741Z 06014KT 9999 TS FEW035 FEW040CB SCT170 BKN/// 32/24 Q1006 RMK 2CU035 1CB040 3AC170 A2973 FBL TS 20KM SE MOV N
RJFS 160700Z 06011KT 9999 FEW035 SCT170 BKN/// 33/25 Q1006
RJFS 160600Z 04007KT 360V070 9999 FEW035 SCT170 BKN/// 34/24 Q1006
RJFS 160522Z 04008KT 9999 FEW035 SCT130 BKN150 35/26 Q1006 RMK 1CU035 3AC130 6AC150 A2972
RJFS 160500Z 04008KT 010V070 9999 FEW035 SCT130 BKN150 33/25 Q1007
RJFS 160400Z 03007KT 9999 FEW035 SCT130 BKN150 33/24 Q1007
RJFS 160300Z 03006KT 9999 FEW030 SCT110 BKN130 32/25 Q1007
RJFS 160200Z 04006KT 360V080 9999 FEW030 SCT130 BKN150 32/25 Q1008
RJFS 160100Z 03006KT 9999 FEW020 SCT120 BKN140 31/25 Q1007
RJFS 160000Z 03006KT 9999 FEW015 SCT140 BKN170 30/25 Q1007
RJFS 152300Z 06007KT 020V080 9999 FEW015 SCT160 BKN/// 29/25 Q1007
RJFS 152200Z 05006KT 9999 FEW010 SCT170 BKN/// 27/25 Q1007
RJFS 152100Z 05003KT 9999 FEW010 SCT050 BKN180 26/24 Q1007
RJFS 151900Z 03003KT 9999 FEW030 SCT050 26/25 Q1006
RJFS 151800Z 02004KT 9999 FEW030 SCT070 26/25 Q1006
RJFS 151700Z 07003KT 9999 FEW030 SCT070 26/25 Q1006
RJFS 151600Z 02003KT 9999 FEW030 SCT100 27/25 Q1007
RJFS 151200Z 15006KT 9999 FEW020 SCT060 BKN070 29/26 Q1007
RJFS 151100Z 04002KT 9999 FEW020 SCT045 BKN/// 28/26 Q1007
RJFS 151000Z 15002KT 9999 FEW020 SCT045 BKN080 29/26 Q1007
RJFS 150900Z VRB02KT 9999 FEW020 SCT030 BKN045 29/26 Q1006
RJFS 150800Z 15003KT 110V180 9999 FEW020 SCT045 BKN130 29/26 Q1006
RJFS 150700Z 17008KT 9999 FEW015 SCT045 BKN140 30/26 Q1006
RJFS 150600Z 17006KT 9999 VCSH FEW010 BKN040 BKN070 29/25 Q1006
RJFS 150500Z 23003KT 190V270 9999 FEW010 SCT035 BKN130 29/25 Q1007
RJFS 150400Z 19004KT 150V240 9999 FEW010 SCT030 BKN140 28/25 Q1007
RJFS 150300Z 16005KT 130V210 9999 FEW010 BKN140 28/25 Q1007
RJFS 150200Z 19007KT 160V220 9999 -SHRA FEW005 SCT030 BKN160 27/25 Q1008
RJFS 150100Z 16011KT 9999 -SHRA FEW008 SCT010 BKN030 26/25 Q1008
RJFS 150000Z 16012KT 9999 -SHRA FEW005 SCT010 BKN015 26/25 Q1007
RJFS 142315Z 20016KT 6000 -SHRA FEW003 SCT007 BKN010 25/24 Q1007 RMK 1ST003 3ST007 6CU010 A2975
RJFS 142300Z 20017KT 3500 SHRA BR FEW003 SCT005 BKN010 25/24 Q1007
RJFS 142221Z 21019KT 2000 R29/2000N SHRA BR FEW003 SCT005 BKN010 25/25 Q1006 RMK 1ST003 4ST005 6CU010 A2972
RJFS 142200Z 23013KT 2500 SHRA BR FEW003 BKN005 BKN015 26/25 Q1006
RJFS 142148Z 24010KT 2500 SHRA BR FEW003 BKN005 BKN015 26/25 Q1006 RMK 1ST003 5ST005 6CU015 A2971
RJFS 142136Z 24009KT 2500 -SHRA BR SCT015 BKN020 26/25 Q1005 RMK 3CU015 6CU020 A2970
RJFS 142124Z 24008KT 2000 SHRA BR FEW015 SCT020 BKN025 26/25 Q1005 RMK 1CU015 4CU020 6CU025 A2970
RJFS 142119Z 24009KT 2000 -SHRA BR FEW015 SCT020 BKN025 26/25 Q1005 RMK 1CU015 3CU020 6CU025 A2969
RJFS 142100Z 24004KT 3000 -SHRA BR FEW015 SCT030 BKN035 27/25 Q1005
RJFS 141900Z 01006KT 9999 FEW035 SCT050 BKN070 28/23 Q1005
RJFS 141800Z 03007KT 9999 FEW035 SCT050 BKN160 29/23 Q1005
RJFS 141700Z 04006KT 9999 FEW035 SCT050 BKN120 29/22 Q1006
RJFS 141600Z 36004KT 9999 FEW035 BKN/// 27/23 Q1007
RJFS 141234Z 10008KT 9999 FEW035 BKN/// 31/23 Q1008 RMK 1CU035 A2978
RJFS 141200Z 09018KT 9999 FEW035 BKN/// 32/21 Q1008
RJFS 141100Z 10011KT 9999 FEW035 BKN/// 31/22 Q1007
RJFS 141000Z 12012KT 9999 FEW035 BKN/// 32/23 Q1007
RJFS 140900Z 12011KT 9999 FEW035 BKN/// 34/25 Q1006
RJFS 140835Z 14010KT 9999 FEW035 BKN/// 35/25 Q1006 RMK 1CU035 A2973
RJFS 140800Z 23005KT 200V260 9999 FEW035 BKN/// 35/24 Q1006